Fesco Vladimir — 5BSL2 — position and weather

sailwx.info

Track history (hours):
 
Tides and Currents Weather Stations Pressure Air Temp Water Temp Dewpoint Dewpoint Depression Visibility Wind Speed Wind Dir Waves Ship Positions

Fesco Vladimir

Last reported at 2014-Jun-30 23:33 UTC. Time now 2014-Jul-22 15:02 UTC.
Position N 27°17' W 014°17'.
Warning: this ship's position is 21 days out of date.

Length 184 m; draft 9.2 m.

Type: Cargo ship. MMSI: 209777000.

Date/timePositionNaut miles runAvg speedWind from/ knotsBaromVisibWave heightAir tempDewpointWater temp
2014-Jun-30 23:33N 27°17' W 014°17'1515.3
2014-Jun-30 22:34N 27°30' W 014°08'1515.4
2014-Jun-30 21:33N 27°42' W 013°58'1515.4
2014-Jun-30 20:34N 27°55' W 013°47'1615.6
2014-Jun-30 19:33N 28°07' W 013°37'3215.3
2014-Jun-30 17:28N 28°34' W 013°16'1415.3
2014-Jun-30 16:33N 28°45' W 013°07'2214.9
2014-Jun-30 15:05N 29°03' W 012°52'814.6
2014-Jun-30 14:33N 29°09' W 012°47'1514.8
2014-Jun-30 13:33N 29°21' W 012°38'4814.8
2014-Jun-30 10:18N 30°00' W 012°05'3115.1
2014-Jun-30 08:16N 30°25' W 011°45'4615.0
2014-Jun-30 05:13N 31°02' W 011°14'1014.6
2014-Jun-30 04:32N 31°11' W 011°07'7715.0
2014-Jun-29 23:24N 32°13' W 010°15'1315.3
2014-Jun-29 22:33N 32°24' W 010°06'3215.8
2014-Jun-29 20:33N 32°50' W 009°44'1615.7
2014-Jun-29 19:33N 33°01' W 009°31'  
Track history (hours):
 
Tides and Currents Weather Stations Pressure Air Temp Water Temp Dewpoint Dewpoint Depression Visibility Wind Speed Wind Dir Waves Ship Positions

Fesco Vladimir

Last reported at 2014-Jun-30 23:33 UTC. Time now 2014-Jul-22 15:02 UTC.
Position N 27°17' W 014°17'.
Warning: this ship's position is 21 days out of date.

Length 184 m; draft 9.2 m.

Type: Cargo ship. MMSI: 209777000.

Date/timePositionNaut miles runAvg speedWind from/ knotsBaromVisibWave heightAir tempDewpointWater temp
2014-Jun-30 23:33N 27°17' W 014°17'1515.3
2014-Jun-30 22:34N 27°30' W 014°08'1515.4
2014-Jun-30 21:33N 27°42' W 013°58'1515.4
2014-Jun-30 20:34N 27°55' W 013°47'1615.6
2014-Jun-30 19:33N 28°07' W 013°37'3215.3
2014-Jun-30 17:28N 28°34' W 013°16'1415.3
2014-Jun-30 16:33N 28°45' W 013°07'2214.9
2014-Jun-30 15:05N 29°03' W 012°52'814.6
2014-Jun-30 14:33N 29°09' W 012°47'1514.8
2014-Jun-30 13:33N 29°21' W 012°38'4814.8
2014-Jun-30 10:18N 30°00' W 012°05'3115.1
2014-Jun-30 08:16N 30°25' W 011°45'4615.0
2014-Jun-30 05:13N 31°02' W 011°14'1014.6
2014-Jun-30 04:32N 31°11' W 011°07'7715.0
2014-Jun-29 23:24N 32°13' W 010°15'1315.3
2014-Jun-29 22:33N 32°24' W 010°06'3215.8
2014-Jun-29 20:33N 32°50' W 009°44'1615.7
2014-Jun-29 19:33N 33°01' W 009°31'  

Dump ship's entire track history